Santa Eulalia de Roncana, Spain
Current Conditions -  °F | °C
As of 5:00 AM on Saturday 20 Dec 2014 (Local Time) from LEBL Reporting Station
Scattered Clouds Scattered Clouds  
Wind Chill: 52°   Ceiling: Unl
Heat Index: 52°   Visibility: 6mi
Dew Point: 46°   Wind: 16mph
Humidity: 82%   Direction: 330°NNW
Pressure: 30.39"   Gusts: NA
Location:  41.65°N, 2.23°E
Report Text: LEBL 200400Z 33014KT 9999 SCT026 11/08 Q1029 NOSIG
Loading
Personal Weather Stations






























Interactive Weather Map New forecast layout! Learn more

10-Day Weather Forecast

Advertisements
Track Severe Weather on mobile